New Market, MD (21774)

12:10 AM EST on February 13, 2016 (GMT -0500)
horse shoe estates | | Change Station
CLOSE
Current Station
Personal Weather Station
Location: Frederick, MD
Elevation: 472 ft
Nearby Weather Stations

Elev 472 ft 39.44 °N, 77.28 °W | Updated 18 seconds ago

Overcast
Overcast
21.9 °F
Feels Like 22 °F
N
2.0
Wind Variable Wind from West
Gusts 8.0 mph

Today
High -- | Low -- °F
--% Chance of Precip.
Yesterday
High -- | Low -- °F
Precip. -- in
Pressure 30.02 in
Visibility 10.0 miles
Clouds Scattered Clouds 3600 ft
Scattered Clouds 4200 ft
Mostly Cloudy 4800 ft
Windchill 22 °F
Dew Point 17 °F
Humidity 82%
Rainfall 0.00 in
Snow Depth Not available.
7:04 AM 5:43 PM
Waxing Crescent, 27% visible
METAR KFDK 130500Z AUTO 00000KT 10SM SCT036 SCT042 BKN048 M05/M07 A3002 RMK AO2
Pressure 30.02 in
Visibility 10.0 miles
Clouds Scattered Clouds 3600 ft
Scattered Clouds 4200 ft
Mostly Cloudy 4800 ft
Windchill 22 °F
Dew Point 17 °F
Humidity 82%
Rainfall 0.00 in
Snow Depth Not available.
7:04 AM 5:43 PM
Waxing Crescent, 27% visible
METAR KFDK 130500Z AUTO 00000KT 10SM SCT036 SCT042 BKN048 M05/M07 A3002 RMK AO2

10-Day Weather Forecast

Almanac

Astronomy

Feb. 13, 2016 Rise Set
Actual Time
Civil Twilight
Nautical Twilight
Astronomical Twilight
Moon
Length of Visible Light
Length of Day
Tomorrow will be .
, % of the Moon is Illuminated

Today's Extremes

State Highs State Lows

Community

WunderPhotos

Upload Photos

1,892,501 photos uploaded!

WunderBlog® & News

Nearby

Air Quality

  Air Quality AQ Index Pollutant
Not available.

Snow Depth

Station Depth Elevation

Earthquake Activity

City Distance Mag. Time & Date
Minimum magnitude displayed is 2.5.

Coastal Water Temperatures

Place Temperature

Stations

Nearby Weather Stations

Station Location Temp. Windchill Dew Point Humidity Wind Precip. Elev Updated Type
                   

Watches & Warnings

Wind Advisory
Issued: 11:51 PM EST Feb. 12, 2016 – National Weather Service

... Wind Advisory remains in effect from 3 am to 6 PM EST
Saturday...

* timing... late tonight through Saturday. Greatest wind threat
is Saturday morning through midday.

* Winds... northwest 20 to 30 mph with gusts around 50 mph.

* Impacts... scattered tree and power line damage. Difficulty
driving high profile vehicles.

Precautionary/preparedness actions...

A Wind Advisory means that wind gusts of 45 to 55 mph are
expected. Secure outdoor furniture and take care driving high
profile vehicles.